Time;durP1;ratioP1;P1;durP2;ratioP2;P2;SDS_P1;SDS_P2;PMS_P1;PMS_P2;Temp;Humidity;BMP_temperature;BMP_pressure;BME280_temperature;BME280_humidity;BME280_pressure;Samples;Min_cycle;Max_cycle;Signal;HPM_P1;HPM_P2
2021/11/25 00:00:43;;;;;;;1.15;0.43;;;19.40;48.20;;;;;;5073753;28;20064;-68
2021/11/25 00:03:10;;;;;;;3.38;0.50;;;19.40;48.10;;;;;;5077364;28;20128;-69
2021/11/25 00:05:38;;;;;;;2.72;0.40;;;19.40;48.10;;;;;;5075387;28;20036;-67
2021/11/25 00:08:06;;;;;;;2.42;0.45;;;19.40;48.00;;;;;;5066678;28;20093;-68
2021/11/25 00:10:34;;;;;;;2.63;1.40;;;19.40;48.00;;;;;;5068761;28;20044;-68
2021/11/25 00:13:02;;;;;;;2.00;0.30;;;19.40;48.00;;;;;;5085156;28;20118;-68
2021/11/25 00:15:30;;;;;;;4.07;0.40;;;19.30;47.90;;;;;;5070543;28;20090;-68
2021/11/25 00:17:57;;;;;;;1.25;0.73;;;19.30;47.90;;;;;;5072912;28;20094;-68
2021/11/25 00:20:24;;;;;;;2.10;0.20;;;19.30;47.90;;;;;;5070638;28;20032;-68
2021/11/25 00:22:52;;;;;;;0.68;0.20;;;19.30;47.80;;;;;;5076646;28;20054;-68
2021/11/25 00:25:19;;;;;;;4.53;0.50;;;19.30;47.80;;;;;;5062457;28;20057;-68
2021/11/25 00:27:46;;;;;;;0.93;0.43;;;19.30;47.80;;;;;;5054800;28;20045;-68
2021/11/25 00:30:15;;;;;;;0.98;0.20;;;19.30;47.80;;;;;;5040420;28;20040;-68
2021/11/25 00:32:43;;;;;;;2.53;0.75;;;19.30;47.80;;;;;;5057552;28;20040;-68
2021/11/25 00:35:12;;;;;;;0.40;0.40;;;19.20;47.80;;;;;;5048337;28;20119;-68
2021/11/25 00:37:40;;;;;;;1.27;0.63;;;19.30;47.80;;;;;;5058576;28;20616;-66
2021/11/25 00:40:10;;;;;;;1.30;0.28;;;19.20;48.00;;;;;;5063746;28;20385;-66
2021/11/25 00:42:38;;;;;;;0.60;0.50;;;19.20;48.00;;;;;;5057761;28;20045;-67
2021/11/25 00:45:06;;;;;;;2.05;0.38;;;19.20;48.00;;;;;;5059037;28;20063;-66
2021/11/25 00:47:35;;;;;;;1.38;0.30;;;19.20;48.00;;;;;;5058524;28;20123;-66
2021/11/25 00:50:03;;;;;;;1.85;0.20;;;19.20;48.00;;;;;;5055091;28;20039;-69
2021/11/25 00:52:30;;;;;;;2.10;0.20;;;19.20;48.00;;;;;;5046929;28;20051;-68
2021/11/25 00:54:57;;;;;;;1.73;0.20;;;19.20;48.10;;;;;;5053191;28;20145;-67
2021/11/25 00:57:25;;;;;;;0.30;0.20;;;19.20;48.10;;;;;;5064460;28;20044;-67
2021/11/25 00:59:52;;;;;;;0.68;0.20;;;19.10;48.00;;;;;;5061125;28;20056;-68
2021/11/25 01:02:19;;;;;;;3.35;1.05;;;19.20;48.10;;;;;;5057956;28;20062;-67
2021/11/25 01:04:48;;;;;;;0.10;0.10;;;19.20;48.10;;;;;;5038934;28;20124;-66
2021/11/25 01:07:15;;;;;;;0.32;0.32;;;19.20;48.10;;;;;;5057408;28;20055;-65
2021/11/25 01:09:42;;;;;;;4.07;0.30;;;19.10;48.10;;;;;;5056517;28;20118;-65
2021/11/25 01:12:11;;;;;;;0.20;0.10;;;19.20;48.10;;;;;;5043425;28;20041;-65
2021/11/25 01:14:39;;;;;;;1.50;0.80;;;19.10;48.10;;;;;;5053915;28;20112;-65
2021/11/25 01:17:06;;;;;;;1.58;0.20;;;19.10;48.10;;;;;;5065793;28;20036;-65
2021/11/25 01:19:33;;;;;;;0.20;0.10;;;19.10;48.10;;;;;;5035849;28;20060;-66
2021/11/25 01:22:02;;;;;;;1.48;0.20;;;19.10;48.10;;;;;;5062375;28;20040;-65
2021/11/25 01:24:29;;;;;;;1.00;0.17;;;19.10;48.20;;;;;;5064889;28;20078;-65
2021/11/25 01:26:56;;;;;;;0.40;0.20;;;19.10;48.20;;;;;;5062000;28;20048;-65
2021/11/25 01:29:23;;;;;;;1.02;0.30;;;19.10;48.20;;;;;;5059813;28;20082;-66
2021/11/25 01:31:51;;;;;;;0.57;0.20;;;19.10;48.20;;;;;;5074033;28;20047;-65
2021/11/25 01:34:18;;;;;;;0.30;0.20;;;19.10;48.30;;;;;;5078452;28;20392;-65
2021/11/25 01:36:45;;;;;;;0.28;0.28;;;19.10;48.20;;;;;;5078655;28;20070;-65
2021/11/25 01:39:13;;;;;;;0.30;0.10;;;19.10;48.30;;;;;;5080580;28;20129;-64
2021/11/25 01:41:41;;;;;;;0.10;0.10;;;19.10;48.20;;;;;;5077888;28;20031;-65
2021/11/25 01:44:08;;;;;;;2.10;0.30;;;19.10;48.20;;;;;;5082943;28;20068;-65
2021/11/25 01:46:35;;;;;;;0.50;0.10;;;19.00;48.20;;;;;;5072043;28;20487;-65
2021/11/25 01:49:02;;;;;;;0.57;0.40;;;19.00;48.20;;;;;;5081398;28;20044;-65
2021/11/25 01:51:30;;;;;;;0.30;0.30;;;19.00;48.20;;;;;;5083717;28;20724;-64
2021/11/25 01:53:57;;;;;;;0.30;0.30;;;19.00;48.20;;;;;;5064011;28;20051;-65
2021/11/25 01:56:25;;;;;;;0.35;0.35;;;19.00;48.30;;;;;;5082171;28;20048;-65
2021/11/25 01:58:53;;;;;;;2.33;0.45;;;19.00;48.30;;;;;;5071917;28;20419;-65
2021/11/25 02:01:23;;;;;;;0.50;0.20;;;19.00;48.30;;;;;;5053315;28;20481;-65
2021/11/25 02:03:51;;;;;;;0.40;0.40;;;19.00;48.30;;;;;;5076820;28;20640;-65
2021/11/25 02:06:19;;;;;;;0.25;0.20;;;19.00;48.30;;;;;;5075861;28;20048;-65
2021/11/25 02:08:46;;;;;;;0.63;0.17;;;19.00;48.90;;;;;;5070720;28;20120;-65
2021/11/25 02:11:14;;;;;;;1.17;0.32;;;19.00;48.20;;;;;;5069757;28;20127;-64
2021/11/25 02:13:42;;;;;;;0.35;0.25;;;19.00;48.30;;;;;;5082037;28;20068;-64
2021/11/25 02:16:11;;;;;;;0.10;0.10;;;19.00;48.30;;;;;;5081868;28;20037;-64
2021/11/25 02:18:39;;;;;;;0.93;0.25;;;18.90;48.30;;;;;;5072523;28;20040;-64
2021/11/25 02:21:07;;;;;;;0.20;0.10;;;19.00;48.40;;;;;;5073426;28;20036;-64
2021/11/25 02:23:34;;;;;;;3.15;0.40;;;19.00;48.30;;;;;;5066396;28;20568;-65
2021/11/25 02:26:03;;;;;;;0.20;0.20;;;18.90;48.20;;;;;;5068322;28;20055;-65
2021/11/25 02:28:33;;;;;;;0.20;0.13;;;18.90;48.20;;;;;;5066571;28;20128;-65
2021/11/25 02:31:00;;;;;;;0.65;0.10;;;18.90;48.20;;;;;;5071722;28;20048;-65
2021/11/25 02:33:27;;;;;;;0.20;0.20;;;18.90;48.20;;;;;;5078167;28;20079;-64
2021/11/25 02:35:55;;;;;;;0.52;0.30;;;18.90;48.10;;;;;;5075532;28;20040;-65
2021/11/25 02:38:24;;;;;;;0.35;0.35;;;18.90;48.10;;;;;;5071438;28;20047;-65
2021/11/25 02:40:53;;;;;;;0.75;0.20;;;18.90;48.00;;;;;;5070454;28;20126;-65
2021/11/25 02:43:24;;;;;;;0.28;0.10;;;18.90;48.00;;;;;;5082477;28;20071;-65
2021/11/25 02:45:54;;;;;;;4.97;0.30;;;18.90;48.00;;;;;;5074553;28;20044;-66
2021/11/25 02:48:25;;;;;;;0.10;0.10;;;18.80;47.90;;;;;;5074866;28;20436;-65
2021/11/25 02:50:54;;;;;;;0.40;0.20;;;18.90;47.90;;;;;;5069825;28;20035;-63
2021/11/25 02:53:24;;;;;;;4.20;0.10;;;18.90;47.80;;;;;;5076453;28;20148;-65
2021/11/25 02:55:55;;;;;;;0.30;0.30;;;18.90;47.80;;;;;;5069123;28;20059;-65
2021/11/25 02:58:22;;;;;;;0.20;0.10;;;18.80;47.70;;;;;;5070908;28;20040;-67
2021/11/25 03:00:53;;;;;;;0.95;0.20;;;18.80;47.80;;;;;;5091234;28;20044;-67
2021/11/25 03:03:20;;;;;;;0.28;0.10;;;18.80;47.80;;;;;;5070057;28;20047;-66
2021/11/25 03:05:50;;;;;;;1.42;0.10;;;18.80;47.80;;;;;;5074078;28;20036;-67
2021/11/25 03:08:19;;;;;;;0.17;0.17;;;18.80;47.70;;;;;;5051964;28;20080;-68
2021/11/25 03:10:53;;;;;;;0.10;0.10;;;18.80;47.70;;;;;;5062800;28;20036;-67
2021/11/25 03:13:22;;;;;;;3.20;0.10;;;18.80;47.70;;;;;;5070888;28;20053;-67
2021/11/25 03:15:49;;;;;;;0.20;0.20;;;18.80;47.60;;;;;;5058465;28;20045;-67
2021/11/25 03:18:16;;;;;;;2.05;0.20;;;18.80;47.60;;;;;;5053545;28;20570;-68
2021/11/25 03:20:46;;;;;;;0.40;0.10;;;18.80;47.60;;;;;;5072223;28;20040;-67
2021/11/25 03:23:14;;;;;;;0.20;0.20;;;18.80;47.60;;;;;;5079577;28;20782;-67
2021/11/25 03:25:42;;;;;;;0.80;0.30;;;18.80;47.50;;;;;;5070715;28;20052;-68
2021/11/25 03:28:11;;;;;;;0.28;0.15;;;18.80;47.50;;;;;;5065515;28;20040;-69
2021/11/25 03:30:39;;;;;;;0.32;0.10;;;18.80;47.50;;;;;;5074585;28;20086;-68
2021/11/25 03:33:08;;;;;;;0.30;0.10;;;18.80;47.50;;;;;;5075531;28;20714;-67
2021/11/25 03:35:36;;;;;;;0.68;0.10;;;18.80;47.50;;;;;;5074155;28;20062;-67
2021/11/25 03:38:04;;;;;;;1.17;0.10;;;18.80;47.50;;;;;;5052107;28;20509;-67
2021/11/25 03:40:31;;;;;;;0.98;0.10;;;18.80;47.50;;;;;;5061838;28;20032;-67
2021/11/25 03:42:59;;;;;;;0.28;0.10;;;18.80;47.40;;;;;;5069927;28;20732;-67
2021/11/25 03:45:27;;;;;;;0.10;0.10;;;18.80;47.40;;;;;;5076305;28;20109;-67
2021/11/25 03:47:54;;;;;;;0.13;0.13;;;18.80;47.50;;;;;;5075015;28;20036;-69
2021/11/25 03:50:22;;;;;;;0.10;0.10;;;18.80;47.40;;;;;;5071743;28;20126;-67
2021/11/25 03:52:49;;;;;;;0.20;0.20;;;18.80;47.40;;;;;;5069299;28;20452;-69
2021/11/25 03:55:18;;;;;;;1.73;0.20;;;18.80;47.40;;;;;;5064084;28;20067;-68
2021/11/25 03:57:46;;;;;;;0.35;0.30;;;18.80;47.40;;;;;;5073502;28;20045;-66
2021/11/25 04:00:16;;;;;;;0.55;0.20;;;18.80;47.50;;;;;;5057662;28;20086;-67
2021/11/25 04:02:46;;;;;;;0.15;0.10;;;18.80;47.50;;;;;;5072359;28;20093;-67
2021/11/25 04:05:14;;;;;;;1.55;0.10;;;18.80;47.50;;;;;;5061944;28;20063;-67
2021/11/25 04:07:42;;;;;;;0.50;0.20;;;18.80;47.50;;;;;;5068197;28;20517;-66
2021/11/25 04:10:12;;;;;;;0.20;0.20;;;18.80;47.50;;;;;;5074749;28;20051;-66
2021/11/25 04:12:39;;;;;;;0.20;0.10;;;18.80;47.40;;;;;;5072755;28;20064;-66
2021/11/25 04:15:08;;;;;;;0.15;0.10;;;18.80;47.30;;;;;;5070450;28;20043;-67
2021/11/25 04:17:36;;;;;;;0.52;0.10;;;18.80;47.30;;;;;;5072567;28;20071;-67
2021/11/25 04:20:08;;;;;;;0.20;0.20;;;18.80;47.20;;;;;;5064977;28;20045;-66
2021/11/25 04:22:35;;;;;;;1.38;0.10;;;18.80;47.30;;;;;;5061232;28;20806;-67
2021/11/25 04:25:02;;;;;;;0.17;0.17;;;18.80;47.20;;;;;;5070825;28;20039;-67
2021/11/25 04:27:29;;;;;;;0.25;0.10;;;18.80;47.30;;;;;;5042903;28;20044;-69
2021/11/25 04:30:04;;;;;;;0.10;0.10;;;18.70;47.20;;;;;;5052842;28;20413;-67
2021/11/25 04:35:32;;;;;;;0.30;0.20;;;18.70;47.10;;;;;;5043031;28;20048;-66
2021/11/25 04:38:01;;;;;;;0.40;0.38;;;18.70;47.10;;;;;;5031344;28;20156;-67
2021/11/25 04:40:30;;;;;;;1.10;0.17;;;18.70;47.10;;;;;;5042520;28;20073;-67
2021/11/25 04:42:57;;;;;;;1.10;0.20;;;18.70;47.10;;;;;;5053919;28;20679;-66
2021/11/25 04:45:24;;;;;;;0.10;0.10;;;18.70;47.00;;;;;;5055150;28;20043;-67
2021/11/25 04:47:51;;;;;;;0.40;0.20;;;18.70;47.00;;;;;;5050071;28;20544;-67
2021/11/25 04:50:20;;;;;;;0.20;0.13;;;18.70;46.90;;;;;;5025847;28;20137;-67
2021/11/25 04:52:48;;;;;;;0.80;0.20;;;18.70;46.80;;;;;;5043887;28;20041;-66
2021/11/25 04:55:15;;;;;;;0.40;0.20;;;18.70;46.80;;;;;;5059644;28;20042;-66
2021/11/25 04:57:43;;;;;;;0.65;0.20;;;18.70;46.80;;;;;;5047026;28;20053;-66
2021/11/25 05:00:11;;;;;;;8.65;0.30;;;18.70;46.80;;;;;;5043544;28;20033;-67
2021/11/25 05:02:38;;;;;;;0.77;0.20;;;18.70;46.80;;;;;;5052777;28;20761;-67
2021/11/25 05:05:07;;;;;;;0.55;0.38;;;18.60;46.80;;;;;;5056408;28;20119;-67
2021/11/25 05:07:35;;;;;;;0.50;0.30;;;18.60;46.80;;;;;;5046671;28;20033;-66
2021/11/25 05:10:03;;;;;;;2.33;0.47;;;18.70;46.80;;;;;;5048466;28;20064;-66
2021/11/25 05:12:30;;;;;;;4.47;0.28;;;18.70;46.80;;;;;;5060581;28;20040;-65
2021/11/25 05:14:57;;;;;;;1.10;0.70;;;18.70;46.80;;;;;;5052743;28;20029;-65
2021/11/25 05:17:25;;;;;;;0.30;0.22;;;18.70;46.80;;;;;;5050229;28;20103;-65
2021/11/25 05:19:52;;;;;;;0.93;0.30;;;18.70;46.80;;;;;;5027498;28;20041;-65
2021/11/25 05:22:19;;;;;;;0.47;0.43;;;18.60;46.70;;;;;;5059748;28;20056;-65
2021/11/25 05:24:49;;;;;;;1.40;0.32;;;18.60;46.70;;;;;;5031208;28;20449;-65
2021/11/25 05:27:16;;;;;;;2.95;0.70;;;18.60;46.60;;;;;;5071123;28;20055;-65
2021/11/25 05:29:43;;;;;;;0.85;0.85;;;18.60;46.60;;;;;;5075947;28;20385;-66
2021/11/25 05:32:15;;;;;;;1.25;0.45;;;18.60;46.60;;;;;;5080471;28;20028;-65
2021/11/25 05:34:45;;;;;;;1.35;0.80;;;18.60;46.60;;;;;;5070711;28;20044;-66
2021/11/25 05:37:12;;;;;;;1.30;0.52;;;18.60;46.70;;;;;;5074406;28;20119;-65
2021/11/25 05:39:41;;;;;;;1.60;0.95;;;18.60;46.70;;;;;;5072423;28;20046;-66
2021/11/25 05:42:10;;;;;;;2.08;0.98;;;18.60;46.60;;;;;;5072548;28;20048;-65
2021/11/25 05:44:37;;;;;;;1.42;0.93;;;18.60;46.60;;;;;;5057234;28;20036;-66
2021/11/25 05:47:05;;;;;;;2.30;1.15;;;18.50;46.60;;;;;;5071817;28;20425;-66
2021/11/25 05:49:32;;;;;;;1.13;1.02;;;18.50;46.60;;;;;;5064265;28;20267;-66
2021/11/25 05:52:00;;;;;;;1.27;1.00;;;18.50;46.50;;;;;;5084825;28;20055;-65
2021/11/25 05:54:27;;;;;;;0.93;0.68;;;18.50;46.50;;;;;;5094751;28;20040;-66
2021/11/25 05:56:54;;;;;;;0.88;0.60;;;18.50;46.50;;;;;;5076824;28;20044;-66
2021/11/25 05:59:23;;;;;;;3.65;1.13;;;18.50;46.50;;;;;;5082131;28;20115;-67
2021/11/25 06:01:50;;;;;;;2.13;1.13;;;18.50;46.50;;;;;;5070703;28;20765;-66
2021/11/25 06:04:17;;;;;;;1.40;0.65;;;18.50;46.50;;;;;;5057230;28;20123;-67
2021/11/25 06:06:44;;;;;;;4.22;1.65;;;18.50;46.50;;;;;;5078242;28;20037;-68
2021/11/25 06:09:12;;;;;;;2.58;1.33;;;18.50;46.50;;;;;;5072593;28;20131;-66
2021/11/25 06:11:39;;;;;;;5.68;1.48;;;18.50;46.50;;;;;;5075722;28;20668;-66
2021/11/25 06:14:06;;;;;;;2.63;1.20;;;18.50;46.60;;;;;;5070948;28;20118;-66
2021/11/25 06:16:34;;;;;;;3.63;2.10;;;18.50;46.60;;;;;;5074929;28;20221;-66
2021/11/25 06:19:01;;;;;;;3.05;1.73;;;18.50;46.60;;;;;;5074597;28;20044;-66
2021/11/25 06:21:28;;;;;;;3.33;2.00;;;18.50;46.60;;;;;;5082013;28;20067;-66
2021/11/25 06:23:55;;;;;;;2.17;1.55;;;18.50;46.70;;;;;;5076177;28;20151;-64
2021/11/25 06:26:23;;;;;;;4.40;1.13;;;18.40;46.60;;;;;;5051678;28;20071;-66
2021/11/25 06:28:54;;;;;;;4.55;1.83;;;18.50;46.70;;;;;;5074079;28;20072;-72
2021/11/25 06:31:22;;;;;;;3.72;1.42;;;18.40;46.70;;;;;;5082559;28;20036;-72
2021/11/25 06:33:50;;;;;;;2.50;1.58;;;18.40;46.70;;;;;;5068894;28;20044;-71
2021/11/25 06:36:18;;;;;;;4.22;1.63;;;18.40;46.70;;;;;;5060374;28;20135;-73
2021/11/25 06:38:45;;;;;;;3.00;1.83;;;18.40;46.70;;;;;;5069371;28;20036;-69
2021/11/25 06:41:12;;;;;;;2.97;1.80;;;18.40;46.70;;;;;;5079393;28;20108;-68
2021/11/25 06:43:40;;;;;;;3.05;1.88;;;18.40;46.70;;;;;;5049873;28;20696;-69
2021/11/25 06:46:07;;;;;;;6.20;2.65;;;18.40;46.70;;;;;;5075521;28;20224;-71
2021/11/25 06:48:34;;;;;;;4.35;2.13;;;18.40;46.80;;;;;;5083104;28;20155;-70
2021/11/25 06:51:03;;;;;;;1.77;1.67;;;18.40;46.80;;;;;;5075074;28;20075;-70
2021/11/25 06:53:30;;;;;;;3.38;2.13;;;18.40;46.70;;;;;;5073604;28;20127;-70
2021/11/25 06:55:57;;;;;;;6.70;2.50;;;18.40;46.70;;;;;;5070172;28;20044;-69
2021/11/25 06:58:24;;;;;;;3.50;2.30;;;18.40;46.70;;;;;;5064362;28;20036;-72
2021/11/25 07:00:52;;;;;;;2.42;2.17;;;18.30;46.60;;;;;;5075210;28;20124;-75
2021/11/25 07:03:19;;;;;;;5.43;2.15;;;18.30;46.60;;;;;;5077753;28;20041;-75
2021/11/25 07:05:46;;;;;;;4.03;2.17;;;18.30;46.70;;;;;;5066239;28;20056;-75
2021/11/25 07:08:15;;;;;;;3.83;2.13;;;18.30;46.70;;;;;;5063924;28;20408;-74
2021/11/25 07:10:42;;;;;;;6.00;2.05;;;18.30;46.60;;;;;;5064129;28;20048;-77
2021/11/25 07:13:09;;;;;;;7.95;3.10;;;18.30;46.60;;;;;;5064432;28;20075;-76
2021/11/25 07:15:37;;;;;;;5.22;2.25;;;18.30;46.70;;;;;;5067855;28;20801;-75
2021/11/25 07:18:04;;;;;;;2.85;2.28;;;18.30;46.70;;;;;;5046564;28;20047;-75
2021/11/25 07:20:31;;;;;;;2.88;1.55;;;18.30;47.30;;;;;;5064734;28;20408;-75
2021/11/25 07:22:59;;;;;;;6.63;1.90;;;18.30;46.70;;;;;;5047675;28;20119;-74
2021/11/25 07:25:27;;;;;;;5.13;2.13;;;18.30;46.80;;;;;;5064902;28;20053;-78
2021/11/25 07:27:54;;;;;;;3.22;1.98;;;18.30;47.00;;;;;;5067390;28;20044;-76
2021/11/25 07:30:23;;;;;;;4.88;1.88;;;18.30;46.80;;;;;;5066587;28;20060;-76
2021/11/25 07:32:51;;;;;;;6.45;3.45;;;18.30;47.00;;;;;;5047803;28;20044;-75
2021/11/25 07:35:19;;;;;;;7.78;2.45;;;18.30;47.00;;;;;;5068919;28;20048;-77
2021/11/25 07:37:47;;;;;;;5.05;2.47;;;18.30;47.20;;;;;;5069574;28;20056;-72
2021/11/25 07:40:14;;;;;;;12.30;3.10;;;18.30;47.30;;;;;;5083560;28;20134;-74
2021/11/25 07:42:42;;;;;;;6.60;2.40;;;18.30;47.40;;;;;;5072351;28;20048;-75
2021/11/25 07:45:10;;;;;;;3.78;2.47;;;18.30;47.50;;;;;;5071839;28;20066;-75
2021/11/25 07:47:38;;;;;;;7.13;2.97;;;18.30;47.50;;;;;;5091409;28;20477;-75
2021/11/25 07:50:09;;;;;;;6.95;3.25;;;18.30;47.40;;;;;;5080236;28;20047;-75
2021/11/25 07:52:38;;;;;;;9.43;2.78;;;18.30;47.40;;;;;;5061424;28;20106;-68
2021/11/25 07:55:07;;;;;;;9.43;4.57;;;18.30;47.50;;;;;;5039334;28;20843;-68
2021/11/25 07:57:35;;;;;;;6.93;2.83;;;18.30;47.60;;;;;;5081864;28;20032;-68
2021/11/25 08:00:06;;;;;;;4.95;3.38;;;18.30;47.60;;;;;;5067993;28;20044;-69
2021/11/25 08:02:39;;;;;;;20.35;4.03;;;18.40;47.80;;;;;;5054206;28;20040;-65
2021/11/25 08:05:07;;;;;;;14.23;2.75;;;18.30;47.80;;;;;;5062231;28;20040;-65
2021/11/25 08:07:35;;;;;;;12.25;2.88;;;18.30;47.90;;;;;;5056216;28;20044;-65
2021/11/25 08:10:04;;;;;;;8.75;4.80;;;18.40;48.00;;;;;;5064519;28;20056;-65
2021/11/25 08:12:31;;;;;;;9.50;2.85;;;18.30;47.90;;;;;;5073225;28;20063;-65
2021/11/25 08:14:58;;;;;;;12.73;4.25;;;18.40;48.00;;;;;;5075281;28;20044;-64
2021/11/25 08:17:27;;;;;;;5.63;2.70;;;18.40;48.00;;;;;;5063147;28;20040;-63
2021/11/25 08:19:54;;;;;;;12.75;3.30;;;18.40;47.80;;;;;;5065456;28;20040;-64
2021/11/25 08:22:21;;;;;;;13.25;3.33;;;18.30;47.70;;;;;;5070724;28;20041;-66
2021/11/25 08:24:49;;;;;;;7.55;3.03;;;18.40;47.70;;;;;;5076931;28;20036;-64
2021/11/25 08:27:16;;;;;;;4.20;2.47;;;18.40;47.60;;;;;;5058167;28;20394;-63
2021/11/25 08:29:44;;;;;;;6.80;3.42;;;18.40;47.60;;;;;;5041841;28;20048;-66
2021/11/25 08:32:12;;;;;;;9.55;4.05;;;18.40;47.50;;;;;;5040671;28;20053;-66
2021/11/25 08:34:40;;;;;;;5.80;4.13;;;18.40;47.40;;;;;;5059091;28;20111;-65
2021/11/25 08:37:08;;;;;;;5.63;2.85;;;18.40;47.30;;;;;;5050821;28;20041;-64
2021/11/25 08:39:37;;;;;;;11.98;3.35;;;18.40;47.30;;;;;;5053374;28;20037;-65
2021/11/25 08:42:05;;;;;;;8.23;2.58;;;18.40;47.20;;;;;;5056344;28;20501;-65
2021/11/25 08:44:32;;;;;;;8.73;4.15;;;18.40;47.20;;;;;;5024070;28;20580;-65
2021/11/25 08:47:01;;;;;;;6.30;4.45;;;18.40;47.10;;;;;;5047797;28;20032;-65
2021/11/25 08:49:29;;;;;;;4.32;3.90;;;18.40;47.10;;;;;;5049897;28;20393;-65
2021/11/25 08:51:58;;;;;;;3.95;2.90;;;18.40;47.00;;;;;;5047359;28;20044;-65
2021/11/25 08:54:26;;;;;;;8.48;3.63;;;18.40;46.90;;;;;;5051508;28;20041;-65
2021/11/25 08:56:53;;;;;;;3.70;2.53;;;18.40;46.80;;;;;;5052547;28;20068;-63
2021/11/25 08:59:21;;;;;;;5.38;3.67;;;18.40;46.80;;;;;;5050061;28;20041;-65
2021/11/25 09:01:49;;;;;;;12.00;3.60;;;18.40;46.80;;;;;;5060296;28;20474;-64
2021/11/25 09:04:17;;;;;;;10.93;4.00;;;18.40;46.70;;;;;;5055152;28;20425;-65
2021/11/25 09:06:44;;;;;;;5.65;3.17;;;18.40;46.60;;;;;;5057287;28;20045;-64
2021/11/25 09:09:13;;;;;;;10.02;2.83;;;18.40;46.60;;;;;;5060579;28;20090;-65
2021/11/25 09:11:43;;;;;;;7.03;3.72;;;18.40;46.50;;;;;;5059877;28;20563;-65
2021/11/25 09:14:11;;;;;;;9.05;3.38;;;18.40;46.50;;;;;;5051076;28;20032;-63
2021/11/25 09:16:38;;;;;;;11.10;4.60;;;18.50;46.50;;;;;;5043775;28;20122;-64
2021/11/25 09:19:06;;;;;;;7.38;3.45;;;18.40;46.30;;;;;;5059682;28;20049;-64
2021/11/25 09:21:33;;;;;;;6.40;2.63;;;18.40;46.40;;;;;;5056098;28;20517;-65
2021/11/25 09:24:04;;;;;;;6.13;3.28;;;18.50;46.40;;;;;;5057429;28;20048;-65
2021/11/25 09:26:34;;;;;;;3.42;2.53;;;18.50;46.40;;;;;;5055857;28;20048;-65
2021/11/25 09:29:02;;;;;;;4.28;2.65;;;18.50;46.30;;;;;;5053380;28;20520;-65
2021/11/25 09:31:31;;;;;;;6.30;3.72;;;18.50;46.30;;;;;;5052286;28;20047;-65
2021/11/25 09:33:59;;;;;;;6.15;3.17;;;18.50;46.20;;;;;;5062724;28;20541;-65
2021/11/25 09:36:29;;;;;;;3.88;2.88;;;18.50;46.20;;;;;;5062820;28;20526;-65
2021/11/25 09:38:56;;;;;;;4.97;3.05;;;18.50;46.10;;;;;;5059955;28;20040;-65
2021/11/25 09:41:24;;;;;;;6.25;3.53;;;18.50;46.00;;;;;;5054798;28;20127;-65
2021/11/25 09:43:53;;;;;;;5.47;3.25;;;18.60;46.10;;;;;;5054800;28;20052;-64
2021/11/25 09:46:23;;;;;;;6.13;2.67;;;18.60;46.00;;;;;;5059107;28;20154;-65
2021/11/25 09:48:53;;;;;;;7.05;4.00;;;18.60;45.90;;;;;;5057818;28;20100;-65
2021/11/25 09:51:23;;;;;;;5.97;3.38;;;18.60;45.90;;;;;;5062129;28;20595;-64
2021/11/25 09:53:51;;;;;;;5.10;2.97;;;18.60;45.80;;;;;;5063160;28;20075;-65
2021/11/25 09:56:18;;;;;;;4.22;2.38;;;18.60;45.70;;;;;;5045152;28;20102;-64
2021/11/25 09:58:47;;;;;;;5.28;3.40;;;18.70;45.70;;;;;;5051824;28;20040;-64
2021/11/25 10:01:19;;;;;;;4.18;2.53;;;18.70;45.60;;;;;;5058831;28;20048;-64
2021/11/25 10:03:49;;;;;;;6.47;3.40;;;18.70;45.50;;;;;;5065852;28;20115;-65
2021/11/25 10:06:17;;;;;;;6.80;3.22;;;18.70;45.50;;;;;;5057074;28;20599;-65
2021/11/25 10:08:48;;;;;;;4.95;3.13;;;18.70;45.40;;;;;;5062918;28;20057;-64
2021/11/25 10:11:18;;;;;;;5.40;2.95;;;18.80;45.40;;;;;;5053461;28;20040;-64
2021/11/25 10:13:48;;;;;;;5.32;2.80;;;18.80;45.30;;;;;;5061448;28;20041;-65
2021/11/25 10:16:21;;;;;;;4.15;3.10;;;18.80;45.30;;;;;;5055836;28;20045;-64
2021/11/25 10:18:49;;;;;;;5.35;2.60;;;18.80;45.20;;;;;;5050022;28;20096;-65
2021/11/25 10:21:18;;;;;;;5.97;2.72;;;18.80;45.10;;;;;;5040898;28;20123;-66
2021/11/25 10:23:46;;;;;;;7.05;3.45;;;18.80;45.00;;;;;;5055948;28;20746;-65
2021/11/25 10:26:17;;;;;;;7.32;4.45;;;18.80;44.90;;;;;;5063565;28;20165;-65
2021/11/25 10:28:47;;;;;;;6.88;3.67;;;18.90;44.90;;;;;;5079780;28;20040;-64
2021/11/25 10:31:19;;;;;;;7.53;2.67;;;18.90;44.80;;;;;;5077889;28;20452;-65
2021/11/25 10:33:52;;;;;;;6.05;3.03;;;18.90;44.80;;;;;;5082804;28;20519;-63
2021/11/25 10:36:40;;;;;;;6.85;4.28;;;18.90;44.70;;;;;;5081045;28;20143;-65
2021/11/25 10:39:26;;;;;;;7.10;3.55;;;18.90;45.20;;;;;;5075832;28;20047;-64
2021/11/25 10:41:55;;;;;;;5.90;3.97;;;19.00;44.60;;;;;;5069130;28;20055;-64
2021/11/25 10:44:26;;;;;;;5.72;3.70;;;18.90;44.50;;;;;;5077771;28;20072;-64
2021/11/25 10:47:01;;;;;;;4.80;3.17;;;19.00;44.50;;;;;;5059093;28;20898;-65
2021/11/25 10:49:41;;;;;;;6.53;3.95;;;19.00;44.40;;;;;;5070174;28;20044;-64
2021/11/25 10:52:11;;;;;;;3.85;2.80;;;19.00;44.30;;;;;;5071884;28;20129;-64
2021/11/25 10:54:48;;;;;;;9.65;3.92;;;19.00;44.30;;;;;;5085326;28;20505;-64
2021/11/25 10:57:16;;;;;;;6.90;3.55;;;19.00;44.20;;;;;;5072989;28;20044;-64
2021/11/25 10:59:46;;;;;;;6.35;3.65;;;19.00;44.10;;;;;;5069462;28;20040;-63
2021/11/25 11:02:29;;;;;;;6.20;3.42;;;19.00;44.00;;;;;;5069490;28;20055;-65
2021/11/25 11:04:59;;;;;;;6.68;4.05;;;19.10;44.10;;;;;;5070064;28;20051;-64
2021/11/25 11:07:29;;;;;;;7.30;4.70;;;19.00;43.90;;;;;;5052621;28;20118;-64
2021/11/25 11:09:58;;;;;;;8.10;4.53;;;19.00;43.90;;;;;;5078022;28;20049;-64
2021/11/25 11:12:31;;;;;;;8.55;4.25;;;19.10;43.90;;;;;;5081919;28;20036;-64
2021/11/25 11:15:12;;;;;;;4.88;3.92;;;19.10;43.90;;;;;;5056646;28;20076;-64
2021/11/25 11:18:01;;;;;;;4.60;3.97;;;19.00;43.80;;;;;;5073780;28;20040;-64
2021/11/25 11:20:30;;;;;;;5.07;4.32;;;19.10;43.80;;;;;;5068967;28;20051;-64
2021/11/25 11:23:00;;;;;;;5.57;3.90;;;19.10;43.80;;;;;;5079577;28;20042;-64
2021/11/25 11:25:28;;;;;;;9.93;3.95;;;19.10;43.70;;;;;;5069769;28;20102;-64
2021/11/25 11:27:58;;;;;;;7.32;4.10;;;19.10;43.70;;;;;;5074337;28;20117;-64
2021/11/25 11:30:26;;;;;;;5.60;3.22;;;19.10;43.60;;;;;;5079418;28;20055;-64
2021/11/25 11:32:56;;;;;;;8.95;4.55;;;19.00;43.50;;;;;;5075629;28;20067;-66
2021/11/25 11:35:25;;;;;;;6.78;3.28;;;19.10;43.50;;;;;;5073760;28;20044;-64
2021/11/25 11:37:54;;;;;;;6.60;3.58;;;19.10;44.10;;;;;;5070056;28;20150;-63
2021/11/25 11:40:23;;;;;;;6.45;4.10;;;19.00;43.40;;;;;;5081726;28;20056;-65
2021/11/25 11:42:52;;;;;;;4.07;3.22;;;19.00;43.40;;;;;;5074564;28;20044;-65
2021/11/25 11:45:21;;;;;;;6.50;4.05;;;19.00;43.40;;;;;;5075883;28;20048;-64
2021/11/25 11:47:53;;;;;;;7.70;3.80;;;19.00;43.40;;;;;;5071266;28;20036;-64
2021/11/25 11:50:30;;;;;;;6.80;3.88;;;19.00;43.40;;;;;;5069396;28;20052;-64
2021/11/25 11:52:59;;;;;;;8.00;4.40;;;19.00;43.30;;;;;;5080843;28;20097;-65
2021/11/25 11:55:36;;;;;;;6.95;4.15;;;19.00;43.40;;;;;;5069624;28;20041;-65
2021/11/25 11:58:25;;;;;;;7.20;3.85;;;19.00;43.40;;;;;;5060307;28;20097;-65
2021/11/25 12:00:55;;;;;;;6.43;3.53;;;19.00;43.30;;;;;;5074107;28;20048;-65
2021/11/25 12:03:35;;;;;;;6.30;3.67;;;18.90;43.40;;;;;;5058040;28;20056;-65
2021/11/25 12:06:06;;;;;;;6.78;4.35;;;18.90;43.30;;;;;;5077363;28;20036;-65
2021/11/25 12:08:45;;;;;;;4.15;3.35;;;18.90;43.40;;;;;;5064821;28;20562;-64
2021/11/25 12:11:15;;;;;;;6.93;3.13;;;18.90;43.40;;;;;;5048206;28;20048;-64
2021/11/25 12:14:13;;;;;;;5.63;3.20;;;18.90;43.40;;;;;;5069219;28;20037;-64
2021/11/25 12:16:46;;;;;;;7.07;3.42;;;18.90;43.30;;;;;;5047461;28;20036;-64
2021/11/25 12:19:13;;;;;;;4.55;3.08;;;18.80;43.40;;;;;;5071152;28;20086;-65
2021/11/25 12:21:45;;;;;;;6.10;3.47;;;18.80;43.40;;;;;;5072645;28;20548;-64
2021/11/25 12:24:23;;;;;;;6.13;3.58;;;18.80;43.30;;;;;;5076746;28;20055;-64
2021/11/25 12:27:23;;;;;;;5.13;2.90;;;18.80;43.40;;;;;;5075617;28;20060;-65
2021/11/25 12:29:58;;;;;;;6.50;4.15;;;18.80;43.30;;;;;;5079470;28;20074;-64
2021/11/25 12:32:36;;;;;;;4.93;3.78;;;18.80;43.40;;;;;;5061978;28;20047;-64
2021/11/25 12:35:40;;;;;;;6.50;3.42;;;18.80;43.40;;;;;;5077795;28;20043;-65
2021/11/25 12:38:19;;;;;;;3.30;3.00;;;18.80;43.30;;;;;;5060701;28;20451;-65
2021/11/25 12:40:58;;;;;;;8.13;3.42;;;18.80;43.40;;;;;;5068647;28;20037;-64
2021/11/25 12:43:28;;;;;;;5.25;2.97;;;18.80;43.50;;;;;;5079367;28;20037;-66
2021/11/25 12:45:57;;;;;;;4.25;3.05;;;18.80;43.50;;;;;;5074130;28;20059;-65
2021/11/25 12:48:28;;;;;;;5.75;3.45;;;18.80;43.50;;;;;;5075148;28;20044;-64
2021/11/25 12:50:59;;;;;;;4.70;3.33;;;18.80;43.40;;;;;;5073669;28;20040;-64
2021/11/25 12:53:32;;;;;;;4.95;2.97;;;18.80;43.50;;;;;;5076981;28;20036;-64
2021/11/25 12:56:03;;;;;;;7.15;3.33;;;18.70;43.50;;;;;;5068123;28;20154;-64
2021/11/25 12:58:43;;;;;;;5.13;2.95;;;18.80;43.50;;;;;;5078154;28;20481;-64